sensor_id;sensor_type;location;lat;lon;timestamp;P1;durP1;ratioP1;P2;durP2;ratioP2
66609;SDS011;53468;48.276;14.416;2023-03-16T00:01:14;7.25;;;3.17;;
66609;SDS011;53468;48.276;14.416;2023-03-16T00:06:18;6.43;;;2.95;;
66609;SDS011;53468;48.276;14.416;2023-03-16T00:11:20;6.20;;;3.30;;
66609;SDS011;53468;48.276;14.416;2023-03-16T00:16:22;7.50;;;2.90;;
66609;SDS011;53468;48.276;14.416;2023-03-16T00:21:26;7.10;;;2.95;;
66609;SDS011;53468;48.276;14.416;2023-03-16T00:26:29;7.95;;;3.35;;
66609;SDS011;53468;48.276;14.416;2023-03-16T00:31:33;6.90;;;3.65;;
66609;SDS011;53468;48.276;14.416;2023-03-16T00:36:37;4.78;;;2.92;;
66609;SDS011;53468;48.276;14.416;2023-03-16T00:41:39;9.88;;;3.40;;
66609;SDS011;53468;48.276;14.416;2023-03-16T00:46:42;6.05;;;3.50;;
66609;SDS011;53468;48.276;14.416;2023-03-16T00:51:45;7.22;;;2.92;;
66609;SDS011;53468;48.276;14.416;2023-03-16T00:56:47;9.95;;;4.38;;
66609;SDS011;53468;48.276;14.416;2023-03-16T01:01:50;7.22;;;3.15;;
66609;SDS011;53468;48.276;14.416;2023-03-16T01:06:53;5.25;;;3.28;;
66609;SDS011;53468;48.276;14.416;2023-03-16T01:11:56;6.68;;;2.72;;
66609;SDS011;53468;48.276;14.416;2023-03-16T01:16:58;4.65;;;2.83;;
66609;SDS011;53468;48.276;14.416;2023-03-16T01:22:02;8.13;;;3.08;;
66609;SDS011;53468;48.276;14.416;2023-03-16T01:27:04;5.30;;;2.90;;
66609;SDS011;53468;48.276;14.416;2023-03-16T01:32:07;6.35;;;3.42;;
66609;SDS011;53468;48.276;14.416;2023-03-16T01:37:10;9.82;;;3.28;;
66609;SDS011;53468;48.276;14.416;2023-03-16T01:42:12;4.65;;;3.60;;
66609;SDS011;53468;48.276;14.416;2023-03-16T01:47:15;4.82;;;3.03;;
66609;SDS011;53468;48.276;14.416;2023-03-16T01:52:20;7.18;;;3.78;;
66609;SDS011;53468;48.276;14.416;2023-03-16T01:57:25;8.00;;;4.28;;
66609;SDS011;53468;48.276;14.416;2023-03-16T02:02:29;6.28;;;3.58;;
66609;SDS011;53468;48.276;14.416;2023-03-16T02:07:34;7.05;;;4.28;;
66609;SDS011;53468;48.276;14.416;2023-03-16T02:12:41;9.63;;;4.05;;
66609;SDS011;53468;48.276;14.416;2023-03-16T02:17:44;9.00;;;3.78;;
66609;SDS011;53468;48.276;14.416;2023-03-16T02:22:49;5.10;;;3.33;;
66609;SDS011;53468;48.276;14.416;2023-03-16T02:27:54;5.95;;;3.47;;
66609;SDS011;53468;48.276;14.416;2023-03-16T02:33:05;9.07;;;3.65;;
66609;SDS011;53468;48.276;14.416;2023-03-16T02:38:07;6.63;;;3.63;;
66609;SDS011;53468;48.276;14.416;2023-03-16T02:43:18;11.25;;;4.20;;
66609;SDS011;53468;48.276;14.416;2023-03-16T02:48:26;7.55;;;4.15;;
66609;SDS011;53468;48.276;14.416;2023-03-16T02:53:32;6.60;;;3.60;;
66609;SDS011;53468;48.276;14.416;2023-03-16T02:58:34;5.88;;;3.28;;
66609;SDS011;53468;48.276;14.416;2023-03-16T03:03:39;5.78;;;3.80;;
66609;SDS011;53468;48.276;14.416;2023-03-16T03:08:41;5.97;;;3.13;;
66609;SDS011;53468;48.276;14.416;2023-03-16T03:13:43;9.38;;;4.20;;
66609;SDS011;53468;48.276;14.416;2023-03-16T03:18:47;5.47;;;3.45;;
66609;SDS011;53468;48.276;14.416;2023-03-16T03:23:49;6.78;;;3.47;;
66609;SDS011;53468;48.276;14.416;2023-03-16T03:28:51;6.75;;;3.28;;
66609;SDS011;53468;48.276;14.416;2023-03-16T03:33:55;6.65;;;2.97;;
66609;SDS011;53468;48.276;14.416;2023-03-16T03:38:57;6.38;;;3.67;;
66609;SDS011;53468;48.276;14.416;2023-03-16T03:43:59;5.50;;;2.90;;
66609;SDS011;53468;48.276;14.416;2023-03-16T03:49:02;5.57;;;3.28;;
66609;SDS011;53468;48.276;14.416;2023-03-16T03:54:05;8.75;;;2.75;;
66609;SDS011;53468;48.276;14.416;2023-03-16T03:59:07;5.78;;;3.25;;
66609;SDS011;53468;48.276;14.416;2023-03-16T04:04:11;6.32;;;3.67;;
66609;SDS011;53468;48.276;14.416;2023-03-16T04:09:13;9.25;;;4.35;;
66609;SDS011;53468;48.276;14.416;2023-03-16T04:14:15;7.63;;;4.22;;
66609;SDS011;53468;48.276;14.416;2023-03-16T04:19:18;7.68;;;4.60;;
66609;SDS011;53468;48.276;14.416;2023-03-16T04:24:21;6.85;;;4.05;;
66609;SDS011;53468;48.276;14.416;2023-03-16T04:29:23;7.45;;;4.47;;
66609;SDS011;53468;48.276;14.416;2023-03-16T04:34:27;9.68;;;4.93;;
66609;SDS011;53468;48.276;14.416;2023-03-16T04:39:29;8.82;;;4.45;;
66609;SDS011;53468;48.276;14.416;2023-03-16T04:44:31;7.43;;;3.85;;
66609;SDS011;53468;48.276;14.416;2023-03-16T04:49:34;11.43;;;5.30;;
66609;SDS011;53468;48.276;14.416;2023-03-16T04:54:36;6.78;;;3.90;;
66609;SDS011;53468;48.276;14.416;2023-03-16T04:59:38;5.60;;;3.45;;
66609;SDS011;53468;48.276;14.416;2023-03-16T05:04:42;9.20;;;3.72;;
66609;SDS011;53468;48.276;14.416;2023-03-16T05:09:44;4.72;;;2.60;;
66609;SDS011;53468;48.276;14.416;2023-03-16T05:14:46;5.82;;;2.88;;
66609;SDS011;53468;48.276;14.416;2023-03-16T05:19:50;4.25;;;2.75;;
66609;SDS011;53468;48.276;14.416;2023-03-16T05:24:52;6.75;;;2.97;;
66609;SDS011;53468;48.276;14.416;2023-03-16T05:29:54;4.47;;;2.92;;
66609;SDS011;53468;48.276;14.416;2023-03-16T05:34:57;6.93;;;3.08;;
66609;SDS011;53468;48.276;14.416;2023-03-16T05:39:59;5.40;;;2.70;;
66609;SDS011;53468;48.276;14.416;2023-03-16T05:45:04;4.53;;;2.78;;
66609;SDS011;53468;48.276;14.416;2023-03-16T05:50:09;7.32;;;3.28;;
66609;SDS011;53468;48.276;14.416;2023-03-16T05:55:13;4.40;;;2.38;;
66609;SDS011;53468;48.276;14.416;2023-03-16T06:00:17;6.60;;;2.78;;
66609;SDS011;53468;48.276;14.416;2023-03-16T06:05:21;6.95;;;3.22;;
66609;SDS011;53468;48.276;14.416;2023-03-16T06:10:25;8.57;;;2.95;;
66609;SDS011;53468;48.276;14.416;2023-03-16T06:15:27;4.72;;;2.72;;
66609;SDS011;53468;48.276;14.416;2023-03-16T06:20:31;4.55;;;2.58;;
66609;SDS011;53468;48.276;14.416;2023-03-16T06:25:33;6.15;;;3.13;;
66609;SDS011;53468;48.276;14.416;2023-03-16T06:30:35;8.00;;;3.45;;
66609;SDS011;53468;48.276;14.416;2023-03-16T06:35:40;5.25;;;2.78;;
66609;SDS011;53468;48.276;14.416;2023-03-16T06:40:42;5.38;;;3.15;;
66609;SDS011;53468;48.276;14.416;2023-03-16T06:45:44;6.22;;;3.20;;
66609;SDS011;53468;48.276;14.416;2023-03-16T06:50:47;5.85;;;3.45;;
66609;SDS011;53468;48.276;14.416;2023-03-16T06:55:49;5.63;;;2.80;;
66609;SDS011;53468;48.276;14.416;2023-03-16T07:00:52;3.70;;;2.55;;
66609;SDS011;53468;48.276;14.416;2023-03-16T07:05:55;4.68;;;2.40;;
66609;SDS011;53468;48.276;14.416;2023-03-16T07:10:57;5.25;;;2.63;;
66609;SDS011;53468;48.276;14.416;2023-03-16T07:16:00;5.35;;;3.17;;
66609;SDS011;53468;48.276;14.416;2023-03-16T07:21:05;7.13;;;3.28;;
66609;SDS011;53468;48.276;14.416;2023-03-16T07:26:07;6.20;;;2.70;;
66609;SDS011;53468;48.276;14.416;2023-03-16T07:31:11;5.22;;;3.17;;
66609;SDS011;53468;48.276;14.416;2023-03-16T07:36:15;3.75;;;2.20;;
66609;SDS011;53468;48.276;14.416;2023-03-16T07:41:40;10.82;;;3.28;;
66609;SDS011;53468;48.276;14.416;2023-03-16T07:46:42;5.38;;;3.22;;
66609;SDS011;53468;48.276;14.416;2023-03-16T07:51:49;7.97;;;3.40;;
66609;SDS011;53468;48.276;14.416;2023-03-16T07:56:51;5.95;;;3.22;;
66609;SDS011;53468;48.276;14.416;2023-03-16T08:01:55;5.05;;;2.65;;
66609;SDS011;53468;48.276;14.416;2023-03-16T08:07:01;4.80;;;3.03;;
66609;SDS011;53468;48.276;14.416;2023-03-16T08:12:06;8.63;;;3.33;;
66609;SDS011;53468;48.276;14.416;2023-03-16T08:17:09;5.13;;;2.50;;
66609;SDS011;53468;48.276;14.416;2023-03-16T08:22:14;7.57;;;4.07;;
66609;SDS011;53468;48.276;14.416;2023-03-16T08:27:33;4.05;;;2.97;;
66609;SDS011;53468;48.276;14.416;2023-03-16T08:32:38;6.60;;;3.08;;
66609;SDS011;53468;48.276;14.416;2023-03-16T08:37:41;3.95;;;2.50;;
66609;SDS011;53468;48.276;14.416;2023-03-16T08:42:45;5.55;;;3.10;;
66609;SDS011;53468;48.276;14.416;2023-03-16T08:47:49;4.13;;;2.65;;
66609;SDS011;53468;48.276;14.416;2023-03-16T08:52:54;4.55;;;2.15;;
66609;SDS011;53468;48.276;14.416;2023-03-16T08:57:56;5.38;;;2.78;;
66609;SDS011;53468;48.276;14.416;2023-03-16T09:03:00;5.55;;;3.10;;
66609;SDS011;53468;48.276;14.416;2023-03-16T09:08:04;8.55;;;2.58;;
66609;SDS011;53468;48.276;14.416;2023-03-16T09:13:06;3.75;;;2.30;;
66609;SDS011;53468;48.276;14.416;2023-03-16T09:18:08;4.32;;;2.90;;
66609;SDS011;53468;48.276;14.416;2023-03-16T09:23:12;4.53;;;2.10;;
66609;SDS011;53468;48.276;14.416;2023-03-16T09:28:14;5.10;;;2.55;;
66609;SDS011;53468;48.276;14.416;2023-03-16T09:33:16;7.32;;;2.75;;
66609;SDS011;53468;48.276;14.416;2023-03-16T09:38:20;2.85;;;2.03;;
66609;SDS011;53468;48.276;14.416;2023-03-16T09:43:26;4.22;;;1.90;;
66609;SDS011;53468;48.276;14.416;2023-03-16T09:48:39;4.43;;;2.53;;
66609;SDS011;53468;48.276;14.416;2023-03-16T09:53:43;3.70;;;2.05;;
66609;SDS011;53468;48.276;14.416;2023-03-16T09:58:49;1.95;;;1.33;;
66609;SDS011;53468;48.276;14.416;2023-03-16T10:03:53;3.33;;;2.08;;
66609;SDS011;53468;48.276;14.416;2023-03-16T10:09:09;3.88;;;1.35;;
66609;SDS011;53468;48.276;14.416;2023-03-16T10:14:19;3.20;;;1.60;;
66609;SDS011;53468;48.276;14.416;2023-03-16T10:19:28;2.30;;;1.55;;
66609;SDS011;53468;48.276;14.416;2023-03-16T10:24:40;3.42;;;2.33;;
66609;SDS011;53468;48.276;14.416;2023-03-16T10:29:49;5.20;;;1.80;;
66609;SDS011;53468;48.276;14.416;2023-03-16T10:34:52;3.45;;;1.73;;
66609;SDS011;53468;48.276;14.416;2023-03-16T10:40:00;2.63;;;1.27;;
66609;SDS011;53468;48.276;14.416;2023-03-16T10:45:13;2.15;;;1.30;;
66609;SDS011;53468;48.276;14.416;2023-03-16T10:50:24;2.80;;;1.35;;
66609;SDS011;53468;48.276;14.416;2023-03-16T10:55:29;4.95;;;1.30;;
66609;SDS011;53468;48.276;14.416;2023-03-16T11:00:35;2.42;;;1.27;;
66609;SDS011;53468;48.276;14.416;2023-03-16T11:05:38;2.33;;;1.30;;
66609;SDS011;53468;48.276;14.416;2023-03-16T11:10:43;4.65;;;1.50;;
66609;SDS011;53468;48.276;14.416;2023-03-16T11:15:47;1.23;;;0.85;;
66609;SDS011;53468;48.276;14.416;2023-03-16T11:20:53;3.25;;;1.30;;
66609;SDS011;53468;48.276;14.416;2023-03-16T11:25:59;2.60;;;1.30;;
66609;SDS011;53468;48.276;14.416;2023-03-16T11:31:07;2.38;;;1.40;;
66609;SDS011;53468;48.276;14.416;2023-03-16T11:41:49;2.47;;;1.00;;
66609;SDS011;53468;48.276;14.416;2023-03-16T11:47:00;1.50;;;0.80;;
66609;SDS011;53468;48.276;14.416;2023-03-16T11:52:10;1.42;;;1.10;;
66609;SDS011;53468;48.276;14.416;2023-03-16T11:57:23;3.25;;;1.80;;
66609;SDS011;53468;48.276;14.416;2023-03-16T12:02:33;3.05;;;1.38;;
66609;SDS011;53468;48.276;14.416;2023-03-16T12:07:56;2.67;;;1.20;;
66609;SDS011;53468;48.276;14.416;2023-03-16T12:13:14;7.32;;;2.00;;
66609;SDS011;53468;48.276;14.416;2023-03-16T12:18:32;3.05;;;1.60;;
66609;SDS011;53468;48.276;14.416;2023-03-16T12:23:41;2.13;;;1.17;;
66609;SDS011;53468;48.276;14.416;2023-03-16T12:28:52;2.80;;;1.53;;
66609;SDS011;53468;48.276;14.416;2023-03-16T12:34:01;5.15;;;1.42;;
66609;SDS011;53468;48.276;14.416;2023-03-16T12:39:10;2.53;;;1.30;;
66609;SDS011;53468;48.276;14.416;2023-03-16T12:44:20;3.63;;;1.27;;
66609;SDS011;53468;48.276;14.416;2023-03-16T12:49:27;2.53;;;1.10;;
66609;SDS011;53468;48.276;14.416;2023-03-16T12:54:33;1.80;;;1.10;;
66609;SDS011;53468;48.276;14.416;2023-03-16T12:59:37;2.20;;;1.17;;
66609;SDS011;53468;48.276;14.416;2023-03-16T13:04:42;1.15;;;0.80;;
66609;SDS011;53468;48.276;14.416;2023-03-16T13:09:47;1.70;;;0.63;;
66609;SDS011;53468;48.276;14.416;2023-03-16T13:14:54;0.95;;;0.70;;
66609;SDS011;53468;48.276;14.416;2023-03-16T13:19:58;2.30;;;1.20;;
66609;SDS011;53468;48.276;14.416;2023-03-16T13:25:16;2.15;;;0.73;;
66609;SDS011;53468;48.276;14.416;2023-03-16T13:30:26;2.92;;;0.90;;
66609;SDS011;53468;48.276;14.416;2023-03-16T13:35:30;1.73;;;0.70;;
66609;SDS011;53468;48.276;14.416;2023-03-16T13:40:32;0.90;;;0.50;;
66609;SDS011;53468;48.276;14.416;2023-03-16T13:45:38;1.88;;;0.50;;
66609;SDS011;53468;48.276;14.416;2023-03-16T13:50:41;0.55;;;0.30;;
66609;SDS011;53468;48.276;14.416;2023-03-16T13:55:44;1.38;;;0.40;;
66609;SDS011;53468;48.276;14.416;2023-03-16T14:00:49;1.88;;;0.50;;
66609;SDS011;53468;48.276;14.416;2023-03-16T14:05:56;0.65;;;0.40;;
66609;SDS011;53468;48.276;14.416;2023-03-16T14:10:58;1.45;;;0.40;;
66609;SDS011;53468;48.276;14.416;2023-03-16T14:16:05;1.58;;;0.77;;
66609;SDS011;53468;48.276;14.416;2023-03-16T14:26:17;1.23;;;0.60;;
66609;SDS011;53468;48.276;14.416;2023-03-16T14:31:22;3.00;;;0.70;;
66609;SDS011;53468;48.276;14.416;2023-03-16T14:36:33;1.60;;;0.52;;
66609;SDS011;53468;48.276;14.416;2023-03-16T14:41:37;1.27;;;0.75;;
66609;SDS011;53468;48.276;14.416;2023-03-16T14:46:40;1.20;;;0.50;;
66609;SDS011;53468;48.276;14.416;2023-03-16T14:51:43;6.18;;;0.60;;
66609;SDS011;53468;48.276;14.416;2023-03-16T14:56:47;0.90;;;0.70;;
66609;SDS011;53468;48.276;14.416;2023-03-16T15:01:52;1.30;;;0.55;;
66609;SDS011;53468;48.276;14.416;2023-03-16T15:06:55;0.85;;;0.68;;
66609;SDS011;53468;48.276;14.416;2023-03-16T15:11:59;0.68;;;0.40;;
66609;SDS011;53468;48.276;14.416;2023-03-16T15:17:03;3.50;;;0.82;;
66609;SDS011;53468;48.276;14.416;2023-03-16T15:22:05;0.63;;;0.30;;
66609;SDS011;53468;48.276;14.416;2023-03-16T15:27:11;2.63;;;0.90;;
66609;SDS011;53468;48.276;14.416;2023-03-16T15:32:22;1.38;;;0.60;;
66609;SDS011;53468;48.276;14.416;2023-03-16T15:37:24;0.55;;;0.38;;
66609;SDS011;53468;48.276;14.416;2023-03-16T15:42:32;0.45;;;0.40;;
66609;SDS011;53468;48.276;14.416;2023-03-16T15:47:37;1.02;;;0.50;;
66609;SDS011;53468;48.276;14.416;2023-03-16T15:52:39;0.70;;;0.47;;
66609;SDS011;53468;48.276;14.416;2023-03-16T15:57:44;1.20;;;0.40;;
66609;SDS011;53468;48.276;14.416;2023-03-16T16:02:49;1.15;;;0.50;;
66609;SDS011;53468;48.276;14.416;2023-03-16T16:07:52;1.75;;;0.60;;
66609;SDS011;53468;48.276;14.416;2023-03-16T16:12:55;0.70;;;0.40;;
66609;SDS011;53468;48.276;14.416;2023-03-16T16:18:03;0.75;;;0.32;;
66609;SDS011;53468;48.276;14.416;2023-03-16T16:23:20;0.30;;;0.30;;
66609;SDS011;53468;48.276;14.416;2023-03-16T16:28:23;1.02;;;0.45;;
66609;SDS011;53468;48.276;14.416;2023-03-16T16:33:29;0.40;;;0.20;;
66609;SDS011;53468;48.276;14.416;2023-03-16T16:38:32;1.63;;;0.30;;
66609;SDS011;53468;48.276;14.416;2023-03-16T16:43:36;0.75;;;0.20;;
66609;SDS011;53468;48.276;14.416;2023-03-16T16:48:41;2.13;;;0.60;;
66609;SDS011;53468;48.276;14.416;2023-03-16T16:53:46;1.00;;;0.45;;
66609;SDS011;53468;48.276;14.416;2023-03-16T16:58:48;3.78;;;0.40;;
66609;SDS011;53468;48.276;14.416;2023-03-16T17:03:53;0.55;;;0.28;;
66609;SDS011;53468;48.276;14.416;2023-03-16T17:08:55;1.05;;;0.60;;
66609;SDS011;53468;48.276;14.416;2023-03-16T17:13:58;1.75;;;0.52;;
66609;SDS011;53468;48.276;14.416;2023-03-16T17:19:05;1.35;;;0.70;;
66609;SDS011;53468;48.276;14.416;2023-03-16T17:24:13;2.42;;;0.90;;
66609;SDS011;53468;48.276;14.416;2023-03-16T17:29:16;5.30;;;0.73;;
66609;SDS011;53468;48.276;14.416;2023-03-16T17:34:23;2.08;;;0.55;;
66609;SDS011;53468;48.276;14.416;2023-03-16T17:39:28;1.95;;;0.68;;
66609;SDS011;53468;48.276;14.416;2023-03-16T17:44:32;1.52;;;0.70;;
66609;SDS011;53468;48.276;14.416;2023-03-16T17:49:37;1.33;;;0.60;;
66609;SDS011;53468;48.276;14.416;2023-03-16T17:54:40;2.20;;;0.80;;
66609;SDS011;53468;48.276;14.416;2023-03-16T17:59:43;2.63;;;0.93;;
66609;SDS011;53468;48.276;14.416;2023-03-16T18:04:46;3.47;;;1.08;;
66609;SDS011;53468;48.276;14.416;2023-03-16T18:09:48;2.55;;;0.90;;
66609;SDS011;53468;48.276;14.416;2023-03-16T18:14:51;4.65;;;1.13;;
66609;SDS011;53468;48.276;14.416;2023-03-16T18:19:58;2.25;;;0.90;;
66609;SDS011;53468;48.276;14.416;2023-03-16T18:25:01;2.63;;;1.13;;
66609;SDS011;53468;48.276;14.416;2023-03-16T18:30:19;2.60;;;0.93;;
66609;SDS011;53468;48.276;14.416;2023-03-16T18:35:23;2.80;;;1.00;;
66609;SDS011;53468;48.276;14.416;2023-03-16T18:40:26;2.58;;;1.00;;
66609;SDS011;53468;48.276;14.416;2023-03-16T18:45:28;2.67;;;0.70;;
66609;SDS011;53468;48.276;14.416;2023-03-16T18:50:32;1.77;;;0.80;;
66609;SDS011;53468;48.276;14.416;2023-03-16T18:55:34;2.38;;;0.70;;
66609;SDS011;53468;48.276;14.416;2023-03-16T19:00:44;9.60;;;0.90;;
66609;SDS011;53468;48.276;14.416;2023-03-16T19:05:52;2.35;;;0.73;;
66609;SDS011;53468;48.276;14.416;2023-03-16T19:10:56;3.38;;;1.40;;
66609;SDS011;53468;48.276;14.416;2023-03-16T19:16:00;6.80;;;1.27;;
66609;SDS011;53468;48.276;14.416;2023-03-16T19:21:07;4.80;;;1.08;;
66609;SDS011;53468;48.276;14.416;2023-03-16T19:26:13;1.77;;;0.85;;
66609;SDS011;53468;48.276;14.416;2023-03-16T19:31:17;9.32;;;1.35;;
66609;SDS011;53468;48.276;14.416;2023-03-16T19:36:23;2.25;;;0.75;;
66609;SDS011;53468;48.276;14.416;2023-03-16T19:41:30;4.68;;;0.93;;
66609;SDS011;53468;48.276;14.416;2023-03-16T19:46:33;2.92;;;0.90;;
66609;SDS011;53468;48.276;14.416;2023-03-16T19:51:37;4.28;;;1.45;;
66609;SDS011;53468;48.276;14.416;2023-03-16T19:56:39;6.30;;;1.17;;
66609;SDS011;53468;48.276;14.416;2023-03-16T20:01:42;5.82;;;1.50;;
66609;SDS011;53468;48.276;14.416;2023-03-16T20:06:47;6.15;;;1.50;;
66609;SDS011;53468;48.276;14.416;2023-03-16T20:11:50;4.38;;;1.35;;
66609;SDS011;53468;48.276;14.416;2023-03-16T20:16:52;3.53;;;1.40;;
66609;SDS011;53468;48.276;14.416;2023-03-16T20:21:55;3.58;;;1.75;;
66609;SDS011;53468;48.276;14.416;2023-03-16T20:26:57;2.47;;;1.33;;
66609;SDS011;53468;48.276;14.416;2023-03-16T20:32:01;5.38;;;2.05;;
66609;SDS011;53468;48.276;14.416;2023-03-16T20:37:09;3.20;;;1.83;;
66609;SDS011;53468;48.276;14.416;2023-03-16T20:42:23;5.00;;;2.00;;
66609;SDS011;53468;48.276;14.416;2023-03-16T20:47:29;6.20;;;1.95;;
66609;SDS011;53468;48.276;14.416;2023-03-16T20:52:32;7.38;;;2.05;;
66609;SDS011;53468;48.276;14.416;2023-03-16T20:57:34;5.05;;;1.73;;
66609;SDS011;53468;48.276;14.416;2023-03-16T21:02:38;3.30;;;1.88;;
66609;SDS011;53468;48.276;14.416;2023-03-16T21:07:41;6.10;;;2.83;;
66609;SDS011;53468;48.276;14.416;2023-03-16T21:12:44;6.28;;;2.40;;
66609;SDS011;53468;48.276;14.416;2023-03-16T21:17:50;4.05;;;2.00;;
66609;SDS011;53468;48.276;14.416;2023-03-16T21:22:59;6.88;;;3.17;;
66609;SDS011;53468;48.276;14.416;2023-03-16T21:28:02;5.05;;;2.22;;
66609;SDS011;53468;48.276;14.416;2023-03-16T21:33:08;7.90;;;2.88;;
66609;SDS011;53468;48.276;14.416;2023-03-16T21:38:20;6.25;;;3.08;;
66609;SDS011;53468;48.276;14.416;2023-03-16T21:43:23;5.55;;;3.03;;
66609;SDS011;53468;48.276;14.416;2023-03-16T21:48:26;4.88;;;2.22;;
66609;SDS011;53468;48.276;14.416;2023-03-16T21:53:35;6.30;;;2.50;;
66609;SDS011;53468;48.276;14.416;2023-03-16T21:58:37;8.98;;;2.78;;
66609;SDS011;53468;48.276;14.416;2023-03-16T22:03:40;4.82;;;2.60;;
66609;SDS011;53468;48.276;14.416;2023-03-16T22:08:43;4.40;;;2.13;;
66609;SDS011;53468;48.276;14.416;2023-03-16T22:13:45;5.00;;;2.03;;
66609;SDS011;53468;48.276;14.416;2023-03-16T22:18:48;5.75;;;2.83;;
66609;SDS011;53468;48.276;14.416;2023-03-16T22:23:53;6.03;;;3.30;;
66609;SDS011;53468;48.276;14.416;2023-03-16T22:28:57;5.82;;;2.63;;
66609;SDS011;53468;48.276;14.416;2023-03-16T22:34:01;4.53;;;2.55;;
66609;SDS011;53468;48.276;14.416;2023-03-16T22:39:05;6.15;;;3.15;;
66609;SDS011;53468;48.276;14.416;2023-03-16T22:44:12;5.00;;;2.33;;
66609;SDS011;53468;48.276;14.416;2023-03-16T22:49:20;4.85;;;2.17;;
66609;SDS011;53468;48.276;14.416;2023-03-16T22:54:25;7.90;;;3.22;;
66609;SDS011;53468;48.276;14.416;2023-03-16T22:59:30;4.53;;;2.22;;
66609;SDS011;53468;48.276;14.416;2023-03-16T23:04:32;5.00;;;2.97;;
66609;SDS011;53468;48.276;14.416;2023-03-16T23:09:35;6.43;;;2.55;;
66609;SDS011;53468;48.276;14.416;2023-03-16T23:14:37;5.90;;;2.60;;
66609;SDS011;53468;48.276;14.416;2023-03-16T23:19:40;4.78;;;2.15;;
66609;SDS011;53468;48.276;14.416;2023-03-16T23:24:44;4.53;;;2.45;;
66609;SDS011;53468;48.276;14.416;2023-03-16T23:29:46;6.63;;;2.30;;
66609;SDS011;53468;48.276;14.416;2023-03-16T23:34:48;4.95;;;2.28;;
66609;SDS011;53468;48.276;14.416;2023-03-16T23:39:52;4.72;;;2.40;;
66609;SDS011;53468;48.276;14.416;2023-03-16T23:45:02;4.70;;;2.40;;
66609;SDS011;53468;48.276;14.416;2023-03-16T23:50:09;2.95;;;1.65;;
66609;SDS011;53468;48.276;14.416;2023-03-16T23:55:15;4.63;;;2.28;;
